Sevier River near Sigurd




Date Battery Voltage (V) Panel Temperature (degC) River Stage (ft) River Discharge (cfs)
01/01/2019 13.33 -8.95 2.32 183
01/02/2019 13.35 -11.98 2.26 173
01/03/2019 13.34 -7.88 1.96 123
01/04/2019 13.33 -4.51 2.29 178
01/05/2019 12.86 -1.92 2.44 207
01/06/2019 12.87 4.33 2.51 223
01/07/2019 12.94 5.30 2.56 234
01/08/2019 13.22 3.55 2.57 235
01/09/2019 13.01 2.72 2.54 229
01/10/2019 13.19 3.64 2.55 230
01/11/2019 13.10 3.01 2.52 224
01/12/2019 13.28 0.85 2.47 214
01/13/2019 13.00 -0.75 2.43 206
01/14/2019 13.11 0.71 2.25 171
01/15/2019 12.77 2.29 1.93 119
01/16/2019 12.73 4.43 1.90 114
01/17/2019 12.52 6.97 2.20 162
01/18/2019 12.73 3.60 2.31 181
01/19/2019 12.75 -0.21 2.36 191
01/20/2019 12.71 2.32 2.34 188
01/21/2019 12.40 1.70 2.34 187
01/22/2019 12.59 -1.36 2.35 189
01/23/2019 12.78 -2.23 2.30 180
01/24/2019 12.92 3.16 2.24 169
01/25/2019 13.05 -0.18 2.36 190
01/26/2019 13.25 1.10 2.32 183
01/27/2019 13.21 1.58 2.30 180
01/28/2019 13.30 2.08 2.31 182
01/29/2019 13.21 0.97 2.32 183
01/30/2019 13.33 0.32 2.32 184
01/31/2019 13.34 1.86 2.30 180
Average 187
Maximum 235
Minimum 114
Total Volume (AF) 11,486